sensor_id;sensor_type;location;lat;lon;timestamp;P1;durP1;ratioP1;P2;durP2;ratioP2
28304;SDS011;15569;42.652;23.040;2022-09-01T00:01:10;8.52;;;6.13;;
28304;SDS011;15569;42.652;23.040;2022-09-01T00:03:39;18.17;;;9.75;;
28304;SDS011;15569;42.652;23.040;2022-09-01T00:06:05;62.03;;;10.35;;
28304;SDS011;15569;42.652;23.040;2022-09-01T00:08:34;21.77;;;9.47;;
28304;SDS011;15569;42.652;23.040;2022-09-01T00:11:00;14.35;;;8.27;;
28304;SDS011;15569;42.652;23.040;2022-09-01T00:13:25;21.88;;;9.35;;
28304;SDS011;15569;42.652;23.040;2022-09-01T00:15:51;17.23;;;9.68;;
28304;SDS011;15569;42.652;23.040;2022-09-01T00:20:50;19.83;;;9.25;;
28304;SDS011;15569;42.652;23.040;2022-09-01T00:23:15;18.60;;;9.05;;
28304;SDS011;15569;42.652;23.040;2022-09-01T00:25:40;15.68;;;8.60;;
28304;SDS011;15569;42.652;23.040;2022-09-01T00:28:06;13.52;;;7.07;;
28304;SDS011;15569;42.652;23.040;2022-09-01T00:30:31;14.57;;;7.05;;
28304;SDS011;15569;42.652;23.040;2022-09-01T00:32:57;15.50;;;7.20;;
28304;SDS011;15569;42.652;23.040;2022-09-01T00:35:22;13.43;;;6.78;;
28304;SDS011;15569;42.652;23.040;2022-09-01T00:37:48;23.27;;;8.18;;
28304;SDS011;15569;42.652;23.040;2022-09-01T00:40:15;31.60;;;6.75;;
28304;SDS011;15569;42.652;23.040;2022-09-01T00:42:41;13.75;;;6.68;;
28304;SDS011;15569;42.652;23.040;2022-09-01T00:45:08;14.15;;;6.63;;
28304;SDS011;15569;42.652;23.040;2022-09-01T00:47:35;16.67;;;7.50;;
28304;SDS011;15569;42.652;23.040;2022-09-01T00:50:02;16.27;;;7.43;;
28304;SDS011;15569;42.652;23.040;2022-09-01T00:52:31;15.95;;;8.18;;
28304;SDS011;15569;42.652;23.040;2022-09-01T00:55:03;16.17;;;7.90;;
28304;SDS011;15569;42.652;23.040;2022-09-01T00:57:34;13.30;;;7.43;;
28304;SDS011;15569;42.652;23.040;2022-09-01T01:00:01;12.00;;;7.03;;
28304;SDS011;15569;42.652;23.040;2022-09-01T01:02:32;15.98;;;7.43;;
28304;SDS011;15569;42.652;23.040;2022-09-01T01:04:58;13.38;;;7.80;;
28304;SDS011;15569;42.652;23.040;2022-09-01T01:07:24;15.35;;;8.27;;
28304;SDS011;15569;42.652;23.040;2022-09-01T01:09:51;12.10;;;8.23;;
28304;SDS011;15569;42.652;23.040;2022-09-01T01:12:17;12.30;;;8.82;;
28304;SDS011;15569;42.652;23.040;2022-09-01T01:14:44;11.93;;;8.40;;
28304;SDS011;15569;42.652;23.040;2022-09-01T01:17:11;11.80;;;8.10;;
28304;SDS011;15569;42.652;23.040;2022-09-01T01:19:41;10.80;;;8.30;;
28304;SDS011;15569;42.652;23.040;2022-09-01T01:22:48;11.13;;;7.70;;
28304;SDS011;15569;42.652;23.040;2022-09-01T01:25:27;9.18;;;8.02;;
28304;SDS011;15569;42.652;23.040;2022-09-01T01:31:01;18.83;;;7.47;;
28304;SDS011;15569;42.652;23.040;2022-09-01T01:33:34;52.20;;;9.40;;
28304;SDS011;15569;42.652;23.040;2022-09-01T01:36:05;86.05;;;10.60;;
28304;SDS011;15569;42.652;23.040;2022-09-01T01:38:41;50.45;;;9.38;;
28304;SDS011;15569;42.652;23.040;2022-09-01T01:41:12;18.08;;;7.90;;
28304;SDS011;15569;42.652;23.040;2022-09-01T01:43:39;14.63;;;7.78;;
28304;SDS011;15569;42.652;23.040;2022-09-01T01:46:06;11.45;;;8.27;;
28304;SDS011;15569;42.652;23.040;2022-09-01T01:48:33;10.68;;;7.47;;
28304;SDS011;15569;42.652;23.040;2022-09-01T01:51:02;12.10;;;7.45;;
28304;SDS011;15569;42.652;23.040;2022-09-01T01:53:28;10.27;;;7.88;;
28304;SDS011;15569;42.652;23.040;2022-09-01T01:55:54;12.57;;;7.50;;
28304;SDS011;15569;42.652;23.040;2022-09-01T01:58:21;14.07;;;7.30;;
28304;SDS011;15569;42.652;23.040;2022-09-01T02:00:49;9.63;;;7.75;;
28304;SDS011;15569;42.652;23.040;2022-09-01T02:03:16;12.82;;;7.15;;
28304;SDS011;15569;42.652;23.040;2022-09-01T02:05:47;12.02;;;7.10;;
28304;SDS011;15569;42.652;23.040;2022-09-01T02:08:14;25.02;;;7.10;;
28304;SDS011;15569;42.652;23.040;2022-09-01T02:10:44;16.20;;;6.63;;
28304;SDS011;15569;42.652;23.040;2022-09-01T02:13:12;13.73;;;7.03;;
28304;SDS011;15569;42.652;23.040;2022-09-01T02:15:41;14.88;;;6.65;;
28304;SDS011;15569;42.652;23.040;2022-09-01T02:18:16;12.73;;;6.93;;
28304;SDS011;15569;42.652;23.040;2022-09-01T02:20:44;11.73;;;7.25;;
28304;SDS011;15569;42.652;23.040;2022-09-01T02:23:12;12.40;;;6.78;;
28304;SDS011;15569;42.652;23.040;2022-09-01T02:25:41;10.93;;;6.82;;
28304;SDS011;15569;42.652;23.040;2022-09-01T02:28:13;8.38;;;6.80;;
28304;SDS011;15569;42.652;23.040;2022-09-01T02:30:43;7.78;;;6.55;;
28304;SDS011;15569;42.652;23.040;2022-09-01T02:33:11;12.75;;;6.80;;
28304;SDS011;15569;42.652;23.040;2022-09-01T02:35:42;8.57;;;6.60;;
28304;SDS011;15569;42.652;23.040;2022-09-01T02:38:09;9.35;;;7.00;;
28304;SDS011;15569;42.652;23.040;2022-09-01T02:40:38;10.40;;;7.93;;
28304;SDS011;15569;42.652;23.040;2022-09-01T02:43:05;14.05;;;6.80;;
28304;SDS011;15569;42.652;23.040;2022-09-01T02:45:30;9.23;;;7.63;;
28304;SDS011;15569;42.652;23.040;2022-09-01T02:47:56;19.38;;;7.75;;
28304;SDS011;15569;42.652;23.040;2022-09-01T02:50:23;10.30;;;6.25;;
28304;SDS011;15569;42.652;23.040;2022-09-01T02:52:49;11.75;;;5.70;;
28304;SDS011;15569;42.652;23.040;2022-09-01T02:55:19;8.10;;;5.88;;
28304;SDS011;15569;42.652;23.040;2022-09-01T02:57:49;9.57;;;5.97;;
28304;SDS011;15569;42.652;23.040;2022-09-01T03:00:21;8.05;;;5.60;;
28304;SDS011;15569;42.652;23.040;2022-09-01T03:02:53;15.80;;;6.75;;
28304;SDS011;15569;42.652;23.040;2022-09-01T03:05:20;25.30;;;6.82;;
28304;SDS011;15569;42.652;23.040;2022-09-01T03:07:55;17.58;;;6.88;;
28304;SDS011;15569;42.652;23.040;2022-09-01T03:10:29;7.85;;;6.53;;
28304;SDS011;15569;42.652;23.040;2022-09-01T03:13:00;10.07;;;7.25;;
28304;SDS011;15569;42.652;23.040;2022-09-01T03:15:27;13.43;;;7.47;;
28304;SDS011;15569;42.652;23.040;2022-09-01T03:17:53;22.25;;;7.72;;
28304;SDS011;15569;42.652;23.040;2022-09-01T03:20:19;27.90;;;7.70;;
28304;SDS011;15569;42.652;23.040;2022-09-01T03:22:46;16.23;;;7.25;;
28304;SDS011;15569;42.652;23.040;2022-09-01T03:25:13;12.15;;;7.13;;
28304;SDS011;15569;42.652;23.040;2022-09-01T03:27:39;9.50;;;6.75;;
28304;SDS011;15569;42.652;23.040;2022-09-01T03:30:05;8.80;;;6.57;;
28304;SDS011;15569;42.652;23.040;2022-09-01T03:32:31;10.02;;;6.43;;
28304;SDS011;15569;42.652;23.040;2022-09-01T03:34:56;16.83;;;7.65;;
28304;SDS011;15569;42.652;23.040;2022-09-01T03:37:22;27.85;;;9.68;;
28304;SDS011;15569;42.652;23.040;2022-09-01T03:39:48;17.38;;;9.63;;
28304;SDS011;15569;42.652;23.040;2022-09-01T03:42:13;12.80;;;8.45;;
28304;SDS011;15569;42.652;23.040;2022-09-01T03:44:46;8.93;;;6.88;;
28304;SDS011;15569;42.652;23.040;2022-09-01T03:47:13;7.28;;;6.53;;
28304;SDS011;15569;42.652;23.040;2022-09-01T03:49:39;6.82;;;6.13;;
28304;SDS011;15569;42.652;23.040;2022-09-01T03:52:07;7.03;;;6.25;;
28304;SDS011;15569;42.652;23.040;2022-09-01T03:54:34;7.03;;;5.95;;
28304;SDS011;15569;42.652;23.040;2022-09-01T03:57:00;8.23;;;6.45;;
28304;SDS011;15569;42.652;23.040;2022-09-01T03:59:30;9.87;;;7.10;;
28304;SDS011;15569;42.652;23.040;2022-09-01T04:01:56;11.30;;;7.13;;
28304;SDS011;15569;42.652;23.040;2022-09-01T04:04:23;9.10;;;7.00;;
28304;SDS011;15569;42.652;23.040;2022-09-01T04:06:50;10.32;;;7.47;;
28304;SDS011;15569;42.652;23.040;2022-09-01T04:09:15;9.18;;;6.57;;
28304;SDS011;15569;42.652;23.040;2022-09-01T04:11:40;6.47;;;5.85;;
28304;SDS011;15569;42.652;23.040;2022-09-01T04:14:10;6.53;;;5.85;;
28304;SDS011;15569;42.652;23.040;2022-09-01T04:16:36;6.25;;;5.65;;
28304;SDS011;15569;42.652;23.040;2022-09-01T04:19:22;6.93;;;6.07;;
28304;SDS011;15569;42.652;23.040;2022-09-01T04:21:50;9.38;;;6.38;;
28304;SDS011;15569;42.652;23.040;2022-09-01T04:24:21;6.03;;;5.43;;
28304;SDS011;15569;42.652;23.040;2022-09-01T04:26:48;6.35;;;5.72;;
28304;SDS011;15569;42.652;23.040;2022-09-01T04:29:15;6.35;;;5.75;;
28304;SDS011;15569;42.652;23.040;2022-09-01T04:31:43;7.38;;;5.90;;
28304;SDS011;15569;42.652;23.040;2022-09-01T04:36:40;8.63;;;6.35;;
28304;SDS011;15569;42.652;23.040;2022-09-01T04:39:08;10.20;;;6.45;;
28304;SDS011;15569;42.652;23.040;2022-09-01T04:41:36;7.03;;;5.88;;
28304;SDS011;15569;42.652;23.040;2022-09-01T04:44:04;7.90;;;7.03;;
28304;SDS011;15569;42.652;23.040;2022-09-01T04:46:36;9.45;;;7.00;;
28304;SDS011;15569;42.652;23.040;2022-09-01T04:49:05;8.27;;;6.45;;
28304;SDS011;15569;42.652;23.040;2022-09-01T04:51:34;9.35;;;6.70;;
28304;SDS011;15569;42.652;23.040;2022-09-01T04:54:02;7.13;;;5.72;;
28304;SDS011;15569;42.652;23.040;2022-09-01T04:56:33;24.02;;;6.80;;
28304;SDS011;15569;42.652;23.040;2022-09-01T04:58:59;22.15;;;7.07;;
28304;SDS011;15569;42.652;23.040;2022-09-01T05:01:25;19.90;;;6.78;;
28304;SDS011;15569;42.652;23.040;2022-09-01T05:03:52;9.73;;;6.57;;
28304;SDS011;15569;42.652;23.040;2022-09-01T05:06:26;34.10;;;7.95;;
28304;SDS011;15569;42.652;23.040;2022-09-01T05:08:53;25.67;;;7.65;;
28304;SDS011;15569;42.652;23.040;2022-09-01T05:11:21;9.32;;;7.97;;
28304;SDS011;15569;42.652;23.040;2022-09-01T05:13:48;13.10;;;8.90;;
28304;SDS011;15569;42.652;23.040;2022-09-01T05:16:18;16.35;;;9.77;;
28304;SDS011;15569;42.652;23.040;2022-09-01T05:18:46;12.73;;;8.30;;
28304;SDS011;15569;42.652;23.040;2022-09-01T05:21:14;12.55;;;8.20;;
28304;SDS011;15569;42.652;23.040;2022-09-01T05:23:42;13.73;;;9.17;;
28304;SDS011;15569;42.652;23.040;2022-09-01T05:26:12;12.43;;;7.55;;
28304;SDS011;15569;42.652;23.040;2022-09-01T05:28:43;10.02;;;7.35;;
28304;SDS011;15569;42.652;23.040;2022-09-01T05:31:11;10.75;;;7.55;;
28304;SDS011;15569;42.652;23.040;2022-09-01T05:33:37;15.98;;;8.18;;
28304;SDS011;15569;42.652;23.040;2022-09-01T05:36:11;16.08;;;8.50;;
28304;SDS011;15569;42.652;23.040;2022-09-01T05:38:37;11.73;;;7.82;;
28304;SDS011;15569;42.652;23.040;2022-09-01T05:41:07;16.80;;;8.38;;
28304;SDS011;15569;42.652;23.040;2022-09-01T05:43:34;18.13;;;9.30;;
28304;SDS011;15569;42.652;23.040;2022-09-01T05:46:00;17.08;;;8.27;;
28304;SDS011;15569;42.652;23.040;2022-09-01T05:48:28;13.85;;;9.45;;
28304;SDS011;15569;42.652;23.040;2022-09-01T05:50:56;15.15;;;9.13;;
28304;SDS011;15569;42.652;23.040;2022-09-01T05:53:24;10.80;;;8.15;;
28304;SDS011;15569;42.652;23.040;2022-09-01T05:55:53;16.87;;;7.97;;
28304;SDS011;15569;42.652;23.040;2022-09-01T05:58:21;14.05;;;7.90;;
28304;SDS011;15569;42.652;23.040;2022-09-01T06:00:49;12.48;;;8.13;;
28304;SDS011;15569;42.652;23.040;2022-09-01T06:03:17;13.30;;;8.40;;
28304;SDS011;15569;42.652;23.040;2022-09-01T06:05:43;11.57;;;7.88;;
28304;SDS011;15569;42.652;23.040;2022-09-01T06:08:12;12.68;;;8.55;;
28304;SDS011;15569;42.652;23.040;2022-09-01T06:10:39;15.32;;;8.65;;
28304;SDS011;15569;42.652;23.040;2022-09-01T06:13:06;15.85;;;9.52;;
28304;SDS011;15569;42.652;23.040;2022-09-01T06:15:32;16.13;;;11.43;;
28304;SDS011;15569;42.652;23.040;2022-09-01T06:17:58;17.85;;;12.77;;
28304;SDS011;15569;42.652;23.040;2022-09-01T06:20:24;22.17;;;17.65;;
28304;SDS011;15569;42.652;23.040;2022-09-01T06:22:51;24.80;;;17.98;;
28304;SDS011;15569;42.652;23.040;2022-09-01T06:25:17;21.67;;;15.77;;
28304;SDS011;15569;42.652;23.040;2022-09-01T06:27:46;23.30;;;16.35;;
28304;SDS011;15569;42.652;23.040;2022-09-01T06:30:13;15.57;;;11.50;;
28304;SDS011;15569;42.652;23.040;2022-09-01T06:32:42;27.83;;;11.18;;
28304;SDS011;15569;42.652;23.040;2022-09-01T06:35:11;17.45;;;12.93;;
28304;SDS011;15569;42.652;23.040;2022-09-01T06:37:40;19.05;;;10.05;;
28304;SDS011;15569;42.652;23.040;2022-09-01T06:40:08;27.02;;;19.27;;
28304;SDS011;15569;42.652;23.040;2022-09-01T06:42:41;29.70;;;17.67;;
28304;SDS011;15569;42.652;23.040;2022-09-01T06:45:08;19.25;;;13.60;;
28304;SDS011;15569;42.652;23.040;2022-09-01T06:47:34;20.05;;;13.90;;
28304;SDS011;15569;42.652;23.040;2022-09-01T06:50:00;20.67;;;14.18;;
28304;SDS011;15569;42.652;23.040;2022-09-01T06:52:26;22.67;;;14.30;;
28304;SDS011;15569;42.652;23.040;2022-09-01T06:54:52;14.82;;;11.13;;
28304;SDS011;15569;42.652;23.040;2022-09-01T06:57:18;15.25;;;12.07;;
28304;SDS011;15569;42.652;23.040;2022-09-01T06:59:45;19.95;;;14.25;;
28304;SDS011;15569;42.652;23.040;2022-09-01T07:02:12;18.30;;;14.82;;
28304;SDS011;15569;42.652;23.040;2022-09-01T07:04:40;22.60;;;17.92;;
28304;SDS011;15569;42.652;23.040;2022-09-01T07:07:08;27.63;;;20.27;;
28304;SDS011;15569;42.652;23.040;2022-09-01T07:09:35;17.38;;;11.85;;
28304;SDS011;15569;42.652;23.040;2022-09-01T07:12:01;20.73;;;13.45;;
28304;SDS011;15569;42.652;23.040;2022-09-01T07:14:28;15.75;;;12.98;;
28304;SDS011;15569;42.652;23.040;2022-09-01T07:16:54;16.15;;;11.13;;
28304;SDS011;15569;42.652;23.040;2022-09-01T07:19:22;16.98;;;11.90;;
28304;SDS011;15569;42.652;23.040;2022-09-01T07:21:50;11.75;;;7.78;;
28304;SDS011;15569;42.652;23.040;2022-09-01T07:24:16;13.80;;;10.65;;
28304;SDS011;15569;42.652;23.040;2022-09-01T07:26:42;13.05;;;10.48;;
28304;SDS011;15569;42.652;23.040;2022-09-01T07:29:13;12.32;;;9.57;;
28304;SDS011;15569;42.652;23.040;2022-09-01T07:31:40;13.82;;;10.52;;
28304;SDS011;15569;42.652;23.040;2022-09-01T07:34:07;11.90;;;9.25;;
28304;SDS011;15569;42.652;23.040;2022-09-01T07:36:40;12.35;;;9.70;;
28304;SDS011;15569;42.652;23.040;2022-09-01T07:41:33;11.48;;;8.93;;
28304;SDS011;15569;42.652;23.040;2022-09-01T07:43:59;12.13;;;9.70;;
28304;SDS011;15569;42.652;23.040;2022-09-01T07:46:25;12.23;;;9.07;;
28304;SDS011;15569;42.652;23.040;2022-09-01T07:48:53;16.95;;;13.05;;
28304;SDS011;15569;42.652;23.040;2022-09-01T07:51:20;18.50;;;16.60;;
28304;SDS011;15569;42.652;23.040;2022-09-01T07:53:47;14.80;;;11.45;;
28304;SDS011;15569;42.652;23.040;2022-09-01T07:56:14;23.67;;;14.00;;
28304;SDS011;15569;42.652;23.040;2022-09-01T07:58:41;20.27;;;16.63;;
28304;SDS011;15569;42.652;23.040;2022-09-01T08:01:07;28.55;;;16.77;;
28304;SDS011;15569;42.652;23.040;2022-09-01T08:03:34;20.13;;;12.32;;
28304;SDS011;15569;42.652;23.040;2022-09-01T08:06:03;16.30;;;11.32;;
28304;SDS011;15569;42.652;23.040;2022-09-01T08:08:34;12.98;;;10.82;;
28304;SDS011;15569;42.652;23.040;2022-09-01T08:11:00;10.90;;;8.77;;
28304;SDS011;15569;42.652;23.040;2022-09-01T08:13:26;12.18;;;8.88;;
28304;SDS011;15569;42.652;23.040;2022-09-01T08:15:52;19.73;;;10.15;;
28304;SDS011;15569;42.652;23.040;2022-09-01T08:18:18;13.32;;;9.80;;
28304;SDS011;15569;42.652;23.040;2022-09-01T08:20:43;16.42;;;10.10;;
28304;SDS011;15569;42.652;23.040;2022-09-01T08:23:11;12.38;;;8.57;;
28304;SDS011;15569;42.652;23.040;2022-09-01T08:25:39;10.43;;;8.27;;
28304;SDS011;15569;42.652;23.040;2022-09-01T08:28:06;12.13;;;8.43;;
28304;SDS011;15569;42.652;23.040;2022-09-01T08:30:32;12.00;;;9.02;;
28304;SDS011;15569;42.652;23.040;2022-09-01T08:32:57;10.82;;;8.70;;
28304;SDS011;15569;42.652;23.040;2022-09-01T08:35:24;16.67;;;8.43;;
28304;SDS011;15569;42.652;23.040;2022-09-01T08:37:51;17.13;;;11.02;;
28304;SDS011;15569;42.652;23.040;2022-09-01T08:40:17;11.50;;;8.57;;
28304;SDS011;15569;42.652;23.040;2022-09-01T08:45:32;13.10;;;8.65;;
28304;SDS011;15569;42.652;23.040;2022-09-01T08:48:12;12.05;;;8.77;;
28304;SDS011;15569;42.652;23.040;2022-09-01T08:50:42;15.82;;;9.07;;
28304;SDS011;15569;42.652;23.040;2022-09-01T08:53:33;11.20;;;8.93;;
28304;SDS011;15569;42.652;23.040;2022-09-01T08:56:11;10.48;;;7.97;;
28304;SDS011;15569;42.652;23.040;2022-09-01T08:58:38;11.18;;;8.40;;
28304;SDS011;15569;42.652;23.040;2022-09-01T09:01:07;9.95;;;8.48;;
28304;SDS011;15569;42.652;23.040;2022-09-01T09:09:16;11.43;;;8.05;;
28304;SDS011;15569;42.652;23.040;2022-09-01T09:14:49;9.95;;;8.30;;
28304;SDS011;15569;42.652;23.040;2022-09-01T09:17:26;12.32;;;9.25;;
28304;SDS011;15569;42.652;23.040;2022-09-01T09:19:54;12.50;;;8.70;;
28304;SDS011;15569;42.652;23.040;2022-09-01T09:22:20;9.75;;;7.72;;
28304;SDS011;15569;42.652;23.040;2022-09-01T09:24:49;8.98;;;7.78;;
28304;SDS011;15569;42.652;23.040;2022-09-01T09:27:34;9.65;;;7.68;;
28304;SDS011;15569;42.652;23.040;2022-09-01T09:30:10;17.77;;;9.85;;
28304;SDS011;15569;42.652;23.040;2022-09-01T09:32:46;14.90;;;9.50;;
28304;SDS011;15569;42.652;23.040;2022-09-01T09:37:46;11.60;;;8.10;;
28304;SDS011;15569;42.652;23.040;2022-09-01T09:40:13;15.00;;;12.13;;
28304;SDS011;15569;42.652;23.040;2022-09-01T09:42:57;16.90;;;14.85;;
28304;SDS011;15569;42.652;23.040;2022-09-01T09:45:28;14.65;;;11.68;;
28304;SDS011;15569;42.652;23.040;2022-09-01T09:48:03;12.93;;;8.30;;
28304;SDS011;15569;42.652;23.040;2022-09-01T09:50:35;12.77;;;8.60;;
28304;SDS011;15569;42.652;23.040;2022-09-01T09:56:08;13.38;;;7.70;;
28304;SDS011;15569;42.652;23.040;2022-09-01T09:58:41;12.63;;;7.28;;
28304;SDS011;15569;42.652;23.040;2022-09-01T10:01:12;11.15;;;7.15;;
28304;SDS011;15569;42.652;23.040;2022-09-01T10:08:46;8.80;;;6.80;;
28304;SDS011;15569;42.652;23.040;2022-09-01T10:11:24;9.32;;;7.68;;
28304;SDS011;15569;42.652;23.040;2022-09-01T10:14:16;9.85;;;6.93;;
28304;SDS011;15569;42.652;23.040;2022-09-01T10:16:44;10.98;;;8.27;;
28304;SDS011;15569;42.652;23.040;2022-09-01T10:19:14;13.68;;;7.47;;
28304;SDS011;15569;42.652;23.040;2022-09-01T10:21:41;11.15;;;7.32;;
28304;SDS011;15569;42.652;23.040;2022-09-01T10:26:58;11.52;;;7.63;;
28304;SDS011;15569;42.652;23.040;2022-09-01T10:32:31;8.90;;;7.20;;
28304;SDS011;15569;42.652;23.040;2022-09-01T10:35:01;12.25;;;7.97;;
28304;SDS011;15569;42.652;23.040;2022-09-01T10:37:28;10.95;;;7.82;;
28304;SDS011;15569;42.652;23.040;2022-09-01T10:42:45;16.00;;;7.50;;
28304;SDS011;15569;42.652;23.040;2022-09-01T10:45:29;14.40;;;8.77;;
28304;SDS011;15569;42.652;23.040;2022-09-01T10:50:52;10.50;;;7.07;;
28304;SDS011;15569;42.652;23.040;2022-09-01T10:53:41;14.18;;;6.70;;
28304;SDS011;15569;42.652;23.040;2022-09-01T10:56:14;8.50;;;6.68;;
28304;SDS011;15569;42.652;23.040;2022-09-01T11:02:14;11.70;;;7.68;;
28304;SDS011;15569;42.652;23.040;2022-09-01T11:06:51;8.02;;;6.93;;
28304;SDS011;15569;42.652;23.040;2022-09-01T11:17:25;10.02;;;6.68;;
28304;SDS011;15569;42.652;23.040;2022-09-01T11:22:36;8.65;;;6.70;;
28304;SDS011;15569;42.652;23.040;2022-09-01T11:30:21;9.88;;;6.72;;
28304;SDS011;15569;42.652;23.040;2022-09-01T11:32:48;7.28;;;5.88;;
28304;SDS011;15569;42.652;23.040;2022-09-01T11:37:46;12.27;;;6.15;;
28304;SDS011;15569;42.652;23.040;2022-09-01T11:40:17;8.88;;;6.03;;
28304;SDS011;15569;42.652;23.040;2022-09-01T11:42:50;8.90;;;5.72;;
28304;SDS011;15569;42.652;23.040;2022-09-01T11:45:28;8.95;;;6.47;;
28304;SDS011;15569;42.652;23.040;2022-09-01T11:48:01;6.93;;;5.72;;
28304;SDS011;15569;42.652;23.040;2022-09-01T11:50:34;11.73;;;5.53;;
28304;SDS011;15569;42.652;23.040;2022-09-01T11:53:03;8.43;;;5.85;;
28304;SDS011;15569;42.652;23.040;2022-09-01T11:58:13;6.95;;;5.72;;
28304;SDS011;15569;42.652;23.040;2022-09-01T12:00:53;9.02;;;6.55;;
28304;SDS011;15569;42.652;23.040;2022-09-01T12:05:48;10.75;;;6.47;;
28304;SDS011;15569;42.652;23.040;2022-09-01T12:08:23;7.95;;;5.68;;
28304;SDS011;15569;42.652;23.040;2022-09-01T12:11:01;12.55;;;6.80;;
28304;SDS011;15569;42.652;23.040;2022-09-01T12:14:47;12.00;;;6.68;;
28304;SDS011;15569;42.652;23.040;2022-09-01T12:16:57;10.57;;;6.40;;
28304;SDS011;15569;42.652;23.040;2022-09-01T12:19:26;10.68;;;6.60;;
28304;SDS011;15569;42.652;23.040;2022-09-01T12:22:01;7.40;;;6.50;;
28304;SDS011;15569;42.652;23.040;2022-09-01T12:24:43;9.55;;;6.40;;
28304;SDS011;15569;42.652;23.040;2022-09-01T12:27:10;9.73;;;5.80;;
28304;SDS011;15569;42.652;23.040;2022-09-01T12:29:37;11.65;;;6.72;;
28304;SDS011;15569;42.652;23.040;2022-09-01T12:32:02;9.50;;;6.75;;
28304;SDS011;15569;42.652;23.040;2022-09-01T12:37:08;10.50;;;7.03;;
28304;SDS011;15569;42.652;23.040;2022-09-01T12:44:45;9.50;;;7.22;;
28304;SDS011;15569;42.652;23.040;2022-09-01T12:47:13;8.70;;;7.20;;
28304;SDS011;15569;42.652;23.040;2022-09-01T12:50:04;7.88;;;6.68;;
28304;SDS011;15569;42.652;23.040;2022-09-01T12:52:32;9.25;;;7.30;;
28304;SDS011;15569;42.652;23.040;2022-09-01T12:57:28;24.45;;;17.35;;
28304;SDS011;15569;42.652;23.040;2022-09-01T13:07:46;17.77;;;9.73;;
28304;SDS011;15569;42.652;23.040;2022-09-01T13:10:12;13.65;;;9.05;;
28304;SDS011;15569;42.652;23.040;2022-09-01T13:12:41;14.73;;;8.55;;
28304;SDS011;15569;42.652;23.040;2022-09-01T13:15:08;16.30;;;9.70;;
28304;SDS011;15569;42.652;23.040;2022-09-01T13:17:34;18.15;;;9.77;;
28304;SDS011;15569;42.652;23.040;2022-09-01T13:20:02;15.25;;;9.35;;
28304;SDS011;15569;42.652;23.040;2022-09-01T13:22:29;11.38;;;8.40;;
28304;SDS011;15569;42.652;23.040;2022-09-01T13:24:54;12.98;;;8.68;;
28304;SDS011;15569;42.652;23.040;2022-09-01T13:27:19;11.38;;;8.15;;
28304;SDS011;15569;42.652;23.040;2022-09-01T13:29:46;13.07;;;8.75;;
28304;SDS011;15569;42.652;23.040;2022-09-01T13:32:13;15.45;;;8.68;;
28304;SDS011;15569;42.652;23.040;2022-09-01T13:34:39;23.63;;;12.15;;
28304;SDS011;15569;42.652;23.040;2022-09-01T13:37:05;22.60;;;12.88;;
28304;SDS011;15569;42.652;23.040;2022-09-01T13:39:30;16.50;;;10.70;;
28304;SDS011;15569;42.652;23.040;2022-09-01T13:41:56;13.32;;;8.93;;
28304;SDS011;15569;42.652;23.040;2022-09-01T13:44:21;14.05;;;8.93;;
28304;SDS011;15569;42.652;23.040;2022-09-01T13:46:47;14.43;;;9.82;;
28304;SDS011;15569;42.652;23.040;2022-09-01T13:49:12;13.93;;;8.02;;
28304;SDS011;15569;42.652;23.040;2022-09-01T13:51:38;11.68;;;8.73;;
28304;SDS011;15569;42.652;23.040;2022-09-01T13:54:04;14.57;;;9.07;;
28304;SDS011;15569;42.652;23.040;2022-09-01T13:56:29;12.80;;;9.23;;
28304;SDS011;15569;42.652;23.040;2022-09-01T13:58:55;20.02;;;10.15;;
28304;SDS011;15569;42.652;23.040;2022-09-01T14:01:20;10.77;;;8.32;;
28304;SDS011;15569;42.652;23.040;2022-09-01T14:03:47;11.52;;;8.43;;
28304;SDS011;15569;42.652;23.040;2022-09-01T14:06:13;12.38;;;8.20;;
28304;SDS011;15569;42.652;23.040;2022-09-01T14:08:39;14.32;;;9.25;;
28304;SDS011;15569;42.652;23.040;2022-09-01T14:11:05;18.77;;;9.65;;
28304;SDS011;15569;42.652;23.040;2022-09-01T14:13:31;15.95;;;8.95;;
28304;SDS011;15569;42.652;23.040;2022-09-01T14:15:57;16.30;;;9.02;;
28304;SDS011;15569;42.652;23.040;2022-09-01T14:18:22;16.75;;;8.95;;
28304;SDS011;15569;42.652;23.040;2022-09-01T14:21:00;14.00;;;7.68;;
28304;SDS011;15569;42.652;23.040;2022-09-01T14:23:26;12.10;;;7.85;;
28304;SDS011;15569;42.652;23.040;2022-09-01T14:25:51;14.02;;;8.77;;
28304;SDS011;15569;42.652;23.040;2022-09-01T14:28:17;15.70;;;8.82;;
28304;SDS011;15569;42.652;23.040;2022-09-01T14:30:44;15.43;;;8.77;;
28304;SDS011;15569;42.652;23.040;2022-09-01T14:33:10;15.15;;;9.50;;
28304;SDS011;15569;42.652;23.040;2022-09-01T14:35:40;16.13;;;10.80;;
28304;SDS011;15569;42.652;23.040;2022-09-01T14:38:08;13.82;;;9.18;;
28304;SDS011;15569;42.652;23.040;2022-09-01T14:40:34;13.95;;;7.25;;
28304;SDS011;15569;42.652;23.040;2022-09-01T14:43:02;11.95;;;7.38;;
28304;SDS011;15569;42.652;23.040;2022-09-01T14:45:29;11.20;;;8.15;;
28304;SDS011;15569;42.652;23.040;2022-09-01T14:47:56;12.30;;;7.65;;
28304;SDS011;15569;42.652;23.040;2022-09-01T14:50:25;10.02;;;7.97;;
28304;SDS011;15569;42.652;23.040;2022-09-01T14:52:52;9.20;;;7.80;;
28304;SDS011;15569;42.652;23.040;2022-09-01T14:55:20;18.38;;;8.32;;
28304;SDS011;15569;42.652;23.040;2022-09-01T14:57:47;10.80;;;7.63;;
28304;SDS011;15569;42.652;23.040;2022-09-01T15:00:13;10.10;;;7.97;;
28304;SDS011;15569;42.652;23.040;2022-09-01T15:02:39;14.55;;;8.20;;
28304;SDS011;15569;42.652;23.040;2022-09-01T15:05:06;9.18;;;7.63;;
28304;SDS011;15569;42.652;23.040;2022-09-01T15:07:32;13.68;;;8.48;;
28304;SDS011;15569;42.652;23.040;2022-09-01T15:09:58;18.30;;;9.55;;
28304;SDS011;15569;42.652;23.040;2022-09-01T15:12:24;15.52;;;8.27;;
28304;SDS011;15569;42.652;23.040;2022-09-01T15:14:50;15.82;;;8.95;;
28304;SDS011;15569;42.652;23.040;2022-09-01T15:17:16;8.32;;;6.32;;
28304;SDS011;15569;42.652;23.040;2022-09-01T15:19:41;10.57;;;7.20;;
28304;SDS011;15569;42.652;23.040;2022-09-01T15:22:07;14.68;;;7.25;;
28304;SDS011;15569;42.652;23.040;2022-09-01T15:24:34;10.10;;;7.10;;
28304;SDS011;15569;42.652;23.040;2022-09-01T15:27:00;9.30;;;6.70;;
28304;SDS011;15569;42.652;23.040;2022-09-01T15:29:25;20.02;;;7.03;;
28304;SDS011;15569;42.652;23.040;2022-09-01T15:31:51;9.00;;;6.95;;
28304;SDS011;15569;42.652;23.040;2022-09-01T15:34:17;11.65;;;7.63;;
28304;SDS011;15569;42.652;23.040;2022-09-01T15:36:43;13.43;;;7.80;;
28304;SDS011;15569;42.652;23.040;2022-09-01T15:39:09;11.93;;;6.85;;
28304;SDS011;15569;42.652;23.040;2022-09-01T15:41:35;12.02;;;7.35;;
28304;SDS011;15569;42.652;23.040;2022-09-01T15:44:02;10.48;;;9.35;;
28304;SDS011;15569;42.652;23.040;2022-09-01T15:46:30;10.43;;;7.10;;
28304;SDS011;15569;42.652;23.040;2022-09-01T15:49:04;15.68;;;9.20;;
28304;SDS011;15569;42.652;23.040;2022-09-01T15:51:33;12.15;;;9.50;;
28304;SDS011;15569;42.652;23.040;2022-09-01T15:54:08;20.05;;;10.85;;
28304;SDS011;15569;42.652;23.040;2022-09-01T15:56:38;14.68;;;9.30;;
28304;SDS011;15569;42.652;23.040;2022-09-01T15:59:04;16.90;;;14.48;;
28304;SDS011;15569;42.652;23.040;2022-09-01T16:01:34;25.77;;;18.20;;
28304;SDS011;15569;42.652;23.040;2022-09-01T16:04:03;19.15;;;13.90;;